Terminal Aerodrome Forecast
Issued by NWS

Home | Current Version | Previous Version | Text Only | Print | Product List | Glossary Off
Versions: 1 2 3 4 5 6 7 8 9 10 11 12 13 14 15

189
FTUS43 KBIS 230520
TAFMOT
TAF
KMOT 230520Z 2306/2406 16005KT P6SM FEW070 SCT150
     FM231100 10004KT P6SM BKN060 BKN200
     FM232100 12016G24KT P6SM VCTS BKN050CB BKN070
     FM240000 12014KT 6SM -SHRA VCTS BKN045CB BKN080
     FM240300 11009KT P6SM BKN050 BKN200=

USA.gov is the U.S. government's official web portal to all federal, state and local government web resources and services.